createdAt,value
2016-11-24T07:28:30.459Z,99.99
2016-11-24T07:29:18.109Z,99.99
2016-11-24T07:30:03.541Z,99.99
2016-11-24T07:30:50.895Z,99.99
2016-11-24T07:31:35.878Z,99.99
2016-11-24T07:32:16.376Z,99.99
2016-11-24T07:32:56.882Z,99.99
2016-11-24T07:33:37.319Z,99.99
2016-11-24T07:34:17.830Z,99.99
2016-11-24T07:34:58.266Z,99.99
2016-11-24T07:35:38.734Z,99.99
2016-11-24T07:36:19.253Z,99.99
2016-11-24T07:36:59.707Z,99.99
2016-11-24T07:37:40.228Z,99.99
2016-11-24T07:38:20.696Z,99.99
2016-11-24T07:39:01.168Z,99.99
2016-11-24T07:39:41.668Z,99.99
2016-11-24T07:40:22.115Z,99.99
2016-11-24T07:41:02.588Z,99.99
2016-11-24T07:41:43.044Z,99.99
2016-11-24T07:42:23.559Z,99.99
2016-11-24T07:43:04.024Z,99.99
2016-11-24T07:43:44.484Z,99.99
2016-11-24T07:44:24.980Z,99.99
2016-11-24T07:45:05.467Z,99.99
2016-11-24T07:45:45.917Z,99.99
2016-11-24T07:46:26.394Z,99.99
2016-11-24T07:47:06.878Z,99.99
2016-11-24T07:47:47.334Z,99.99
2016-11-24T07:48:27.829Z,99.99
2016-11-24T07:49:08.270Z,99.99
2016-11-24T07:49:48.748Z,99.99
2016-11-24T07:50:29.200Z,99.99
2016-11-24T07:51:09.679Z,99.99
2016-11-24T07:51:50.116Z,99.99
2016-11-24T07:52:30.604Z,99.99
2016-11-24T07:53:11.023Z,99.99
2016-11-24T07:53:51.493Z,99.99
2016-11-24T07:54:31.978Z,99.99
2016-11-24T07:55:12.474Z,99.99
2016-11-24T07:55:52.937Z,99.99
2016-11-24T07:56:33.558Z,99.99
2016-11-24T07:57:14.038Z,99.99
2016-11-24T07:57:54.506Z,99.99
2016-11-24T07:58:35.020Z,99.99
2016-11-24T07:59:15.487Z,99.99
2016-11-24T07:59:55.968Z,99.99
2016-11-24T08:00:36.452Z,99.99
2016-11-24T08:01:16.956Z,99.99
2016-11-24T08:01:57.436Z,99.99
2016-11-24T08:02:37.927Z,99.99
2016-11-24T08:03:18.433Z,99.99
2016-11-24T08:03:58.923Z,99.99
2016-11-24T08:04:39.415Z,99.99
2016-11-24T08:05:19.901Z,99.99
2016-11-24T08:06:00.382Z,99.99
2016-11-24T08:06:40.833Z,99.99
2016-11-24T08:07:21.494Z,99.99
2016-11-24T08:08:01.960Z,99.99
2016-11-24T08:08:42.468Z,99.99
2016-11-24T08:09:23.203Z,99.99
2016-11-24T08:10:05.324Z,99.99
2016-11-24T08:10:45.838Z,99.99
2016-11-24T08:13:04.967Z,99.99
2016-11-24T08:13:45.731Z,99.99
2016-11-24T08:14:26.476Z,99.99
2016-11-24T08:15:07.210Z,99.99
2016-11-24T08:15:47.905Z,99.99
2016-11-24T08:16:29.149Z,99.99
2016-11-24T08:17:09.639Z,99.99
2016-11-24T08:17:50.113Z,99.99
2016-11-24T08:18:30.611Z,99.99
2016-11-24T08:19:11.088Z,99.99
2016-11-24T08:19:51.586Z,99.99
2016-11-24T08:20:32.070Z,99.99
2016-11-24T08:21:17.981Z,99.99
2016-11-24T08:21:58.489Z,99.99
2016-11-24T08:22:38.948Z,99.99
2016-11-24T08:23:19.452Z,99.99
2016-11-24T08:23:59.939Z,99.99
2016-11-24T08:24:40.391Z,99.99
2016-11-24T08:25:20.863Z,99.99
2016-11-24T08:26:01.379Z,99.99
2016-11-24T08:26:41.871Z,99.99
2016-11-24T08:27:22.338Z,99.99
2016-11-24T08:28:02.816Z,99.99
2016-11-24T08:28:43.341Z,99.99
2016-11-24T08:29:23.795Z,99.99
2016-11-24T08:30:04.263Z,99.99
2016-11-24T08:30:44.821Z,99.99
2016-11-24T08:31:25.338Z,99.99
2016-11-24T08:32:05.812Z,99.99
2016-11-24T08:32:46.366Z,99.99
2016-11-24T08:33:26.843Z,99.99
2016-11-24T08:34:07.284Z,99.99
2016-11-24T08:34:47.764Z,99.85
2016-11-24T08:35:28.273Z,99.57
2016-11-24T08:36:08.760Z,99.66
2016-11-24T08:36:49.206Z,99.38
2016-11-24T08:37:31.190Z,98.91
2016-11-24T08:38:11.724Z,99.19
2016-11-24T08:38:52.226Z,99.1
2016-11-24T08:39:32.681Z,99.1
2016-11-24T08:40:13.210Z,99.01
2016-11-24T08:40:53.684Z,99.38
2016-11-24T08:41:34.154Z,99.19
2016-11-24T08:42:14.771Z,99.19
2016-11-24T08:42:55.248Z,99.29
2016-11-24T08:43:35.736Z,98.91
2016-11-24T08:44:16.179Z,98.53
2016-11-24T08:44:56.687Z,98.53
2016-11-24T08:45:37.157Z,98.63
2016-11-24T08:46:17.679Z,98.53
2016-11-24T08:46:59.678Z,98.63
2016-11-24T08:47:40.217Z,99.01
2016-11-24T08:48:20.682Z,99.19
2016-11-24T08:49:01.110Z,98.63
2016-11-24T08:49:41.665Z,99.29
2016-11-24T08:50:22.144Z,99.38
2016-11-24T08:51:02.603Z,98.91
2016-11-24T08:51:43.091Z,99.19
2016-11-24T08:52:23.576Z,99.1
2016-11-24T08:53:04.036Z,99.29
2016-11-24T08:53:44.545Z,98.72
2016-11-24T08:54:31.463Z,99.1
2016-11-24T08:55:20.752Z,99.48
2016-11-24T08:56:15.878Z,99.95
2016-11-24T08:57:01.265Z,99.76
2016-11-24T08:57:48.563Z,99.66
2016-11-24T08:58:38.741Z,99.99
2016-11-24T08:59:26.365Z,99.76
2016-11-24T09:00:05.787Z,99.66
2016-11-24T09:00:46.448Z,99.95
2016-11-24T09:01:26.896Z,99.95
2016-11-24T09:02:07.387Z,99.85
2016-11-24T09:02:47.872Z,99.99
2016-11-24T09:03:28.356Z,99.99
2016-11-24T09:04:08.822Z,99.95
2016-11-24T09:04:49.324Z,99.76
2016-11-24T09:05:31.014Z,99.99
2016-11-24T09:06:11.480Z,99.57
2016-11-24T09:06:51.986Z,99.76
2016-11-24T09:07:32.719Z,99.99
2016-11-24T09:08:13.189Z,99.95
2016-11-24T09:08:53.715Z,99.99
2016-11-24T09:09:34.188Z,99.99
2016-11-24T09:10:14.653Z,99.99
2016-11-24T09:10:55.138Z,99.99
2016-11-24T09:11:35.637Z,99.99
2016-11-24T09:12:16.116Z,99.99
2016-11-24T09:12:56.673Z,99.99
2016-11-24T09:13:37.117Z,99.99
2016-11-24T09:14:17.617Z,99.99
2016-11-24T09:14:58.089Z,99.99
2016-11-24T09:15:38.553Z,99.99
2016-11-24T09:16:19.061Z,99.9
2016-11-24T09:16:59.584Z,99.71
2016-11-24T09:17:40.058Z,99.99
2016-11-24T09:18:20.543Z,99.99
2016-11-24T09:19:01.028Z,99.81
2016-11-24T09:19:41.519Z,99.9
2016-11-24T09:20:21.994Z,99.71
2016-11-24T09:21:02.494Z,99.52
2016-11-24T09:21:42.976Z,99.52
2016-11-24T09:22:23.474Z,99.71
2016-11-24T09:23:04.052Z,98.96
2016-11-24T09:23:44.552Z,99.43
2016-11-24T09:24:25.034Z,99.33
2016-11-24T09:25:05.519Z,99.15
2016-11-24T09:25:45.983Z,99.33
2016-11-24T09:26:26.482Z,98.63
2016-11-24T09:27:06.951Z,98.96
2016-11-24T09:27:47.447Z,98.49
2016-11-24T09:28:27.943Z,98.63
2016-11-24T09:29:08.431Z,98.72
2016-11-24T09:29:48.924Z,98.44
2016-11-24T09:30:29.417Z,98.54
2016-11-24T09:31:09.926Z,98.44
2016-11-24T09:31:50.405Z,98.82
2016-11-24T09:32:30.918Z,98.16
2016-11-24T09:33:11.391Z,98.35
2016-11-24T09:33:51.888Z,98.16
2016-11-24T09:34:32.374Z,98.16
2016-11-24T09:35:12.854Z,98.25
2016-11-24T09:35:53.334Z,97.68
2016-11-24T09:36:36.746Z,97.78
2016-11-24T09:37:29.917Z,97.59
2016-11-24T09:38:22.707Z,97.68
2016-11-24T09:39:08.568Z,97.49
2016-11-24T09:39:59.099Z,97.59
2016-11-24T09:40:38.528Z,97.11
2016-11-24T09:41:19.032Z,96.55
2016-11-24T09:41:59.528Z,96.64
2016-11-24T09:42:40.029Z,96.83
2016-11-24T09:43:20.542Z,96.83
2016-11-24T09:44:01.223Z,96.64
2016-11-24T09:44:42.772Z,96.92
2016-11-24T09:45:23.218Z,95.98
2016-11-24T09:46:03.693Z,96.36
2016-11-24T09:46:44.194Z,96.55
2016-11-24T09:47:24.664Z,96.17
2016-11-24T09:48:05.152Z,96.17
2016-11-24T09:48:45.640Z,96.45
2016-11-24T09:49:26.174Z,95.98
2016-11-24T09:50:06.636Z,95.6
2016-11-24T09:50:47.144Z,95.6
2016-11-24T09:51:27.627Z,95.79
2016-11-24T09:52:08.108Z,96.17
2016-11-24T09:52:48.595Z,96.07
2016-11-24T09:53:29.031Z,95.98
2016-11-24T09:54:09.565Z,95.79
2016-11-24T09:54:50.036Z,95.88
2016-11-24T09:55:30.516Z,95.79
2016-11-24T09:56:11.005Z,95.6
2016-11-24T09:56:51.593Z,95.65
2016-11-24T09:57:32.128Z,95.36
2016-11-24T09:58:12.569Z,96.03
2016-11-24T09:58:53.067Z,95.84
2016-11-24T09:59:33.552Z,95.65
2016-11-24T10:00:14.047Z,95.65
2016-11-24T10:01:01.305Z,95.65
2016-11-24T10:01:41.796Z,94.93
2016-11-24T10:02:22.249Z,94.84
2016-11-24T10:03:02.744Z,94.51
2016-11-24T10:03:43.235Z,94.89
2016-11-24T10:04:23.716Z,94.32
2016-11-24T10:05:04.235Z,94.42
2016-11-24T10:05:44.711Z,94.46
2016-11-24T10:06:25.211Z,94.37
2016-11-24T10:07:05.733Z,94.84
2016-11-24T10:07:46.173Z,94.42
2016-11-24T10:08:26.747Z,94.56
2016-11-24T10:09:07.297Z,94.51
2016-11-24T10:09:47.781Z,94.89
2016-11-24T10:10:28.289Z,94.7
2016-11-24T10:11:08.783Z,94.98
2016-11-24T10:11:49.239Z,95.03
2016-11-24T10:12:29.740Z,94.93
2016-11-24T10:13:10.217Z,95.36
2016-11-24T10:13:50.693Z,95.41
2016-11-24T10:14:31.185Z,95.12
2016-11-24T10:15:11.625Z,95.36
2016-11-24T10:15:52.142Z,95.55
2016-11-24T10:16:32.619Z,95.74
2016-11-24T10:17:13.123Z,95.88
2016-11-24T10:17:53.626Z,95.74
2016-11-24T10:18:35.140Z,95.74
2016-11-24T10:19:14.820Z,95.65
2016-11-24T10:19:55.284Z,95.74
2016-11-24T10:20:35.787Z,95.45
2016-11-24T10:21:16.234Z,95.74
2016-11-24T10:21:57.361Z,95.93
2016-11-24T10:22:37.816Z,95.74
2016-11-24T10:23:18.338Z,95.74
2016-11-24T10:23:58.836Z,95.65
2016-11-24T10:24:39.319Z,95.93
2016-11-24T10:25:19.803Z,95.93
2016-11-24T10:26:00.276Z,96.12
2016-11-24T10:26:40.764Z,95.55
2016-11-24T10:27:21.232Z,95.17
2016-11-24T10:28:01.715Z,95.36
2016-11-24T10:28:42.203Z,95.55
2016-11-24T10:29:22.701Z,96.03
2016-11-24T10:30:03.170Z,95.74
2016-11-24T10:30:43.648Z,95.74
2016-11-24T10:31:24.127Z,95.93
2016-11-24T10:32:04.598Z,95.55
2016-11-24T10:32:45.088Z,95.74
2016-11-24T10:33:25.581Z,95.74
2016-11-24T10:34:06.068Z,96.12
2016-11-24T10:34:46.560Z,96.59
2016-11-24T10:35:26.995Z,96.69
2016-11-24T10:36:07.544Z,96.78
2016-11-24T10:36:47.985Z,96.31
2016-11-24T10:37:28.465Z,96.03
2016-11-24T10:38:08.974Z,95.74
2016-11-24T10:38:49.457Z,95.84
2016-11-24T10:39:29.951Z,96.03
2016-11-24T10:40:10.425Z,96.73
2016-11-24T10:40:50.886Z,96.64
2016-11-24T10:41:31.370Z,96.64
2016-11-24T10:42:21.055Z,96.73
2016-11-24T10:43:03.081Z,96.17
2016-11-24T10:43:44.124Z,95.69
2016-11-24T10:44:24.612Z,95.79
2016-11-24T10:45:06.678Z,95.31
2016-11-24T10:45:47.172Z,94.74
2016-11-24T10:46:27.703Z,94.46
2016-11-24T10:47:08.186Z,94.37
2016-11-24T10:47:48.654Z,94.74
2016-11-24T10:48:29.106Z,94.32
2016-11-24T10:49:09.587Z,93.65
2016-11-24T10:49:50.042Z,93.75
2016-11-24T10:50:30.510Z,93.56
2016-11-24T10:51:10.994Z,92.99
2016-11-24T10:53:39.786Z,90.33
2016-11-24T10:54:20.223Z,91.09
2016-11-24T10:55:02.673Z,91.47
2016-11-24T10:55:43.144Z,90.05
2016-11-24T10:56:23.612Z,90.05
2016-11-24T10:57:04.149Z,89.67
2016-11-24T10:57:44.625Z,89.58
2016-11-24T10:58:25.101Z,89.39
2016-11-24T10:59:08.159Z,89.39
2016-11-24T10:59:48.481Z,89.48
2016-11-24T11:00:28.986Z,89.39
2016-11-24T11:01:09.487Z,90
2016-11-24T11:01:50.706Z,88.86
2016-11-24T11:02:31.137Z,89.72
2016-11-24T11:03:11.597Z,89.14
2016-11-24T11:03:52.076Z,87.91
2016-11-24T11:04:32.540Z,87.91
2016-11-24T11:05:12.995Z,88.01
2016-11-24T11:05:53.475Z,86.96
2016-11-24T11:06:35.164Z,87.15
2016-11-24T11:07:15.668Z,87.82
2016-11-24T11:07:56.195Z,87.91
2016-11-24T11:08:36.660Z,87.15
2016-11-24T11:09:17.139Z,87.72
2016-11-24T11:09:57.731Z,87.05
2016-11-24T11:10:38.656Z,86.49
2016-11-24T11:11:19.034Z,86.3
2016-11-24T11:11:59.370Z,85.91
2016-11-24T11:12:40.287Z,85.53
2016-11-24T11:13:20.703Z,84.87
2016-11-24T11:14:03.914Z,84.53
2016-11-24T11:14:43.724Z,85.3
2016-11-24T11:15:24.238Z,84.63
2016-11-24T11:16:04.823Z,84.63
2016-11-24T11:16:45.364Z,84.53
2016-11-24T11:17:25.794Z,83.97
2016-11-24T11:18:06.302Z,83.97
2016-11-24T11:18:46.822Z,84.06
2016-11-24T11:19:27.287Z,83.49
2016-11-24T11:20:07.780Z,83.49
2016-11-24T11:20:48.248Z,83.3
2016-11-24T11:21:28.770Z,83.2
2016-11-24T11:22:09.214Z,83.59
2016-11-24T11:22:49.746Z,82.64
2016-11-24T11:23:30.206Z,81.78
2016-11-24T11:24:11.125Z,82.26
2016-11-24T11:24:52.419Z,81.59
2016-11-24T11:25:32.902Z,81.49
2016-11-24T11:26:13.368Z,81.68
2016-11-24T11:26:53.856Z,81.97
2016-11-24T11:27:34.977Z,82.45
2016-11-24T11:28:15.276Z,82.26
2016-11-24T11:28:55.789Z,81.78
2016-11-24T11:29:36.234Z,81.78
2016-11-24T11:30:16.710Z,81.21
2016-11-24T11:30:57.249Z,81.49
2016-11-24T11:31:37.748Z,81.12
2016-11-24T11:32:18.412Z,81.21
2016-11-24T11:32:59.557Z,81.12
2016-11-24T11:33:40.030Z,80.64
2016-11-24T11:34:20.476Z,80.93
2016-11-24T11:35:00.951Z,80.64
2016-11-24T11:35:41.485Z,81.21
2016-11-24T11:36:21.972Z,81.12
2016-11-24T11:37:02.426Z,81.4
2016-11-24T11:37:42.943Z,80.83
2016-11-24T11:38:23.389Z,81.59
2016-11-24T11:39:03.877Z,81.87
2016-11-24T11:39:44.335Z,82.16
2016-11-24T11:40:24.897Z,82.16
2016-11-24T11:41:05.360Z,81.97
2016-11-24T11:41:45.899Z,81.87
2016-11-24T11:44:01.539Z,81.87
2016-11-24T11:44:51.015Z,81.4
2016-11-24T11:45:35.480Z,81.02
2016-11-24T11:46:31.031Z,81.21
2016-11-24T11:47:09.975Z,81.49
2016-11-24T11:47:50.502Z,82.64
2016-11-24T11:48:30.938Z,81.87
2016-11-24T11:49:11.472Z,81.21
2016-11-24T11:49:51.895Z,81.12
2016-11-24T11:50:32.374Z,81.59
2016-11-24T11:51:12.880Z,81.4
2016-11-24T11:51:53.337Z,80.64
2016-11-24T11:52:33.904Z,80.93
2016-11-24T11:53:14.355Z,81.4
2016-11-24T11:53:54.811Z,81.78
2016-11-24T11:54:35.335Z,81.78
2016-11-24T11:55:15.792Z,81.68
2016-11-24T11:55:56.338Z,80.93
2016-11-24T11:56:36.859Z,81.25
2016-11-24T11:57:17.386Z,81.12
2016-11-24T11:57:57.865Z,81.06
2016-11-24T11:58:38.425Z,80.58
2016-11-24T11:59:18.895Z,80.87
2016-11-24T11:59:59.421Z,81.35
2016-11-24T12:00:39.890Z,80.11
2016-11-24T12:01:20.439Z,80.4
2016-11-24T12:02:00.946Z,80.21
2016-11-24T12:02:41.484Z,79.63
2016-11-24T12:03:21.989Z,79.44
2016-11-24T12:04:02.449Z,79.92
2016-11-24T12:04:42.953Z,80.21
2016-11-24T12:05:23.412Z,79.63
2016-11-24T12:06:03.901Z,79.83
2016-11-24T12:06:44.434Z,79.63
2016-11-24T12:07:24.910Z,80.11
2016-11-24T12:08:05.401Z,80.21
2016-11-24T12:08:45.924Z,80.11
2016-11-24T12:09:26.500Z,79.92
2016-11-24T12:10:06.938Z,80.58
2016-11-24T12:10:47.421Z,79.63
2016-11-24T12:11:27.927Z,79.73
2016-11-24T12:12:08.445Z,79.16
2016-11-24T12:12:48.996Z,79.16
2016-11-24T12:13:29.469Z,78.88
2016-11-24T12:14:09.966Z,79.44
2016-11-24T12:14:51.428Z,79.63
2016-11-24T12:15:31.947Z,79.25
2016-11-24T12:16:12.440Z,79.83
2016-11-24T12:16:52.901Z,79.73
2016-11-24T12:17:33.439Z,80.58
2016-11-24T12:18:13.928Z,80.68
2016-11-24T12:18:54.418Z,80.11
2016-11-24T12:19:34.879Z,80.11
2016-11-24T12:20:15.364Z,80.11
2016-11-24T12:20:55.838Z,79.73
2016-11-24T12:21:36.325Z,80.3
2016-11-24T12:22:16.776Z,79.92
2016-11-24T12:22:57.260Z,80.11
2016-11-24T12:23:37.838Z,79.73
2016-11-24T12:24:18.326Z,79.83
2016-11-24T12:24:58.778Z,79.83
2016-11-24T12:25:39.256Z,80.11
2016-11-24T12:26:19.778Z,80.26
2016-11-24T12:27:00.251Z,80.07
2016-11-24T12:27:40.760Z,80.68
2016-11-24T12:28:21.292Z,80.35
2016-11-24T12:29:02.458Z,80.55
2016-11-24T12:29:42.970Z,80.83
2016-11-24T12:30:23.500Z,80.83
2016-11-24T12:31:04.036Z,81.21
2016-11-24T12:31:44.587Z,81.21
2016-11-24T12:32:25.064Z,80.74
2016-11-24T12:33:05.551Z,81.02
2016-11-24T12:33:46.088Z,81.21
2016-11-24T12:34:26.594Z,81.02
2016-11-24T12:35:07.158Z,81.02
2016-11-24T12:35:47.682Z,80.83
2016-11-24T12:36:28.188Z,80.93
2016-11-24T12:37:08.673Z,81.12
2016-11-24T12:37:49.176Z,80.83
2016-11-24T12:38:29.685Z,81.12
2016-11-24T12:39:10.124Z,81.78
2016-11-24T12:41:33.009Z,80.83
2016-11-24T12:42:19.558Z,81.3
2016-11-24T12:43:00.545Z,80.35
2016-11-24T12:43:41.059Z,80.16
2016-11-24T12:44:21.522Z,80.35
2016-11-24T12:45:02.012Z,80.49
2016-11-24T12:45:42.459Z,80.64
2016-11-24T12:46:22.968Z,80.87
2016-11-24T12:47:03.467Z,80.87
2016-11-24T12:47:43.948Z,80.58
2016-11-24T12:48:24.459Z,80.64
2016-11-24T12:49:04.948Z,80.87
2016-11-24T12:49:45.445Z,80.83
2016-11-24T12:50:25.932Z,80.21
2016-11-24T12:51:06.418Z,80.3
2016-11-24T12:51:46.937Z,80.3
2016-11-24T12:52:27.413Z,80.3
2016-11-24T12:53:07.892Z,80.3
2016-11-24T12:53:49.593Z,80.58
2016-11-24T12:54:30.123Z,79.92
2016-11-24T12:55:10.627Z,80.07
2016-11-24T12:55:51.126Z,79.97
2016-11-24T12:56:31.745Z,79.79
2016-11-24T12:57:12.223Z,80.26
2016-11-24T12:57:52.721Z,80.83
2016-11-24T12:58:33.221Z,80.83
2016-11-24T12:59:13.697Z,80.64
2016-11-24T12:59:54.154Z,79.97
2016-11-24T13:00:34.669Z,80.64
2016-11-24T13:01:15.139Z,81.3
2016-11-24T13:01:55.661Z,80.55
2016-11-24T13:02:36.149Z,80.64
2016-11-24T13:03:16.627Z,81.3
2016-11-24T13:03:57.129Z,81.12
2016-11-24T13:04:37.612Z,80.83
2016-11-24T13:05:18.114Z,81.12
2016-11-24T13:05:58.614Z,81.4
2016-11-24T13:06:39.121Z,80.83
2016-11-24T13:07:19.599Z,80.83
2016-11-24T13:08:00.076Z,80.64
2016-11-24T13:08:40.579Z,80.64
2016-11-24T13:09:21.066Z,80.83
2016-11-24T13:10:01.566Z,80.83
2016-11-24T13:10:42.074Z,80.83
2016-11-24T13:11:22.559Z,80.83
2016-11-24T13:12:03.066Z,80.83
2016-11-24T13:12:43.549Z,80.83
2016-11-24T13:13:24.169Z,81.02
2016-11-24T13:14:04.781Z,80.64
2016-11-24T13:14:45.295Z,80.64
2016-11-24T13:15:25.841Z,81.12
2016-11-24T13:16:06.319Z,80.83
2016-11-24T13:16:46.856Z,80.64
2016-11-24T13:17:27.317Z,80.93
2016-11-24T13:18:07.810Z,80.83
2016-11-24T13:18:48.310Z,80.74
2016-11-24T13:19:28.803Z,80.83
2016-11-24T13:20:09.349Z,81.3
2016-11-24T13:20:49.838Z,80.83
2016-11-24T13:21:30.343Z,80.64
2016-11-24T13:22:10.902Z,80.64
2016-11-24T13:22:51.388Z,80.83
2016-11-24T13:23:31.887Z,81.12
2016-11-24T13:24:12.396Z,81.12
2016-11-24T13:24:52.868Z,81.4
2016-11-24T13:25:33.356Z,81.3
2016-11-24T13:26:14.764Z,81.68
2016-11-24T13:26:55.292Z,81.87
2016-11-24T13:27:35.812Z,81.87
2016-11-24T13:28:16.330Z,81.02
2016-11-24T13:28:56.901Z,81.3
2016-11-24T13:29:37.366Z,81.97
2016-11-24T13:30:17.847Z,82.07
2016-11-24T13:30:58.369Z,82.64
2016-11-24T13:31:38.883Z,81.78
2016-11-24T13:32:19.422Z,81.68
2016-11-24T13:32:59.900Z,81.97
2016-11-24T13:33:40.388Z,81.97
2016-11-24T13:34:20.968Z,81.78
2016-11-24T13:35:01.533Z,81.78
2016-11-24T13:35:42.025Z,81.49
2016-11-24T13:36:22.528Z,81.78
2016-11-24T13:37:03.478Z,81.78
2016-11-24T13:37:43.898Z,82.16
2016-11-24T13:38:24.415Z,82.16
2016-11-24T13:39:04.931Z,82.07
2016-11-24T13:39:45.429Z,82.07
2016-11-24T13:40:25.937Z,81.68
2016-11-24T13:41:06.432Z,81.78
2016-11-24T13:41:46.920Z,81.68
2016-11-24T13:42:27.394Z,81.68
2016-11-24T13:43:07.887Z,81.59
2016-11-24T13:43:48.385Z,81.78
2016-11-24T13:44:29.081Z,81.78
2016-11-24T13:45:09.541Z,81.87
2016-11-24T13:45:50.072Z,81.87
2016-11-24T13:46:30.580Z,81.78
2016-11-24T13:47:11.057Z,81.97
2016-11-24T13:47:51.542Z,82.16
2016-11-24T13:48:32.054Z,82.54
2016-11-24T13:49:12.564Z,82.16
2016-11-24T13:49:53.022Z,82.73
2016-11-24T13:50:33.539Z,82.73
2016-11-24T13:51:14.012Z,82.64
2016-11-24T13:51:54.508Z,82.26
2016-11-24T13:52:35.007Z,82.73
2016-11-24T13:53:15.474Z,83.68
2016-11-24T13:53:55.958Z,83.59
2016-11-24T13:54:36.499Z,83.54
2016-11-24T13:55:16.976Z,83.11
2016-11-24T13:55:57.467Z,83.07
2016-11-24T13:56:37.960Z,82.88
2016-11-24T13:57:18.512Z,82.97
2016-11-24T13:57:58.972Z,83.07
2016-11-24T13:58:39.457Z,83.16
2016-11-24T13:59:20.002Z,83.73
2016-11-24T14:00:00.444Z,84.11
2016-11-24T14:00:40.927Z,83.83
2016-11-24T14:01:21.425Z,83.92
2016-11-24T14:02:01.926Z,84.11
2016-11-24T14:02:42.410Z,84.11
2016-11-24T14:03:22.953Z,84.11
2016-11-24T14:04:03.438Z,84.01
2016-11-24T14:04:43.939Z,83.83
2016-11-24T14:05:24.451Z,84.01
2016-11-24T14:06:04.941Z,83.92
2016-11-24T14:06:49.589Z,84.01
2016-11-24T14:07:36.867Z,84.59
2016-11-24T14:09:56.806Z,84.59
2016-11-24T14:10:36.951Z,84.97
2016-11-24T14:11:17.465Z,85.06
2016-11-24T14:11:57.990Z,84.97
2016-11-24T14:12:43.758Z,85.16
2016-11-24T14:13:39.131Z,85.25
2016-11-24T14:14:29.098Z,85.25
2016-11-24T14:15:14.924Z,85.35
2016-11-24T14:15:58.355Z,85.06
2016-11-24T14:16:43.923Z,85.06
2016-11-24T14:17:29.414Z,85.06
2016-11-24T14:18:15.017Z,85.53
2016-11-24T14:19:00.154Z,85.16
2016-11-24T14:19:45.317Z,86.01
2016-11-24T14:20:25.645Z,86.2
2016-11-24T14:21:06.110Z,86.3
2016-11-24T14:21:46.579Z,86.39
2016-11-24T14:22:27.100Z,86.2
2016-11-24T14:23:10.259Z,85.63
2016-11-24T14:25:10.251Z,86.3
2016-11-24T14:25:50.643Z,86.25
2016-11-24T14:26:31.145Z,86.77
2016-11-24T14:27:11.599Z,86.54
2016-11-24T14:27:54.316Z,86.44
2016-11-24T14:28:34.198Z,86.82
2016-11-24T14:29:15.084Z,87.39
2016-11-24T14:29:55.538Z,87.39
2016-11-24T14:30:36.025Z,87.49
2016-11-24T14:31:16.524Z,86.91
2016-11-24T14:31:56.977Z,87.11
2016-11-24T14:32:37.468Z,86.91
2016-11-24T14:33:17.947Z,87.39
2016-11-24T14:33:58.459Z,87.2
2016-11-24T14:34:38.946Z,87.39
2016-11-24T14:35:19.507Z,87.49
2016-11-24T14:35:59.977Z,87.3
2016-11-24T14:36:40.455Z,87.49
2016-11-24T14:37:20.969Z,87.68
2016-11-24T14:39:35.816Z,87.58
2016-11-24T14:40:16.282Z,87.49
2016-11-24T14:40:56.818Z,87.3
2016-11-24T14:41:37.318Z,87.96
2016-11-24T14:42:17.870Z,88.53
2016-11-24T14:42:58.339Z,88.34
2016-11-24T14:43:38.871Z,88.53
2016-11-24T14:44:19.320Z,88.62
2016-11-24T14:44:59.776Z,88.43
2016-11-24T14:45:40.269Z,88.53
2016-11-24T14:46:20.758Z,88.24
2016-11-24T14:47:01.260Z,88.81
2016-11-24T14:47:41.779Z,88.72
2016-11-24T14:48:22.298Z,89.1
2016-11-24T14:49:03.735Z,89.1
2016-11-24T14:49:50.451Z,89.48
2016-11-24T14:50:30.905Z,88.81
2016-11-24T14:51:11.406Z,88.77
2016-11-24T14:51:51.890Z,89.72
2016-11-24T14:52:32.911Z,89.15
2016-11-24T14:53:13.479Z,89.81
2016-11-24T14:54:02.423Z,89.95
2016-11-24T14:55:51.769Z,90.1
2016-11-24T14:56:39.240Z,89.81
2016-11-24T14:57:27.830Z,90.1
2016-11-24T14:58:16.550Z,90.1
2016-11-24T15:00:35.039Z,90.48
2016-11-24T15:01:23.351Z,90.57
2016-11-24T15:02:12.000Z,90
2016-11-24T15:03:00.564Z,90.19
2016-11-24T15:03:49.342Z,90.1
2016-11-24T15:04:37.703Z,90
2016-11-24T15:05:26.817Z,89.72
2016-11-24T15:06:14.973Z,90.48
2016-11-24T15:07:04.094Z,90.76
2016-11-24T15:07:52.438Z,90.67
2016-11-24T15:08:40.855Z,90.29
2016-11-24T15:09:29.652Z,90.95
2016-11-24T15:10:17.978Z,91.14
2016-11-24T15:11:02.574Z,91.24
2016-11-24T15:11:43.126Z,91.24
2016-11-24T15:12:23.684Z,91.99
2016-11-24T15:13:04.170Z,91.9
2016-11-24T15:13:44.643Z,92.18
2016-11-24T15:14:25.257Z,91.99
2016-11-24T15:15:05.729Z,92.66
2016-11-24T15:15:46.215Z,92.76
2016-11-24T15:16:26.796Z,93.08
2016-11-24T15:17:07.293Z,93.08
2016-11-24T15:17:47.811Z,92.99
2016-11-24T15:18:28.314Z,92.8
2016-11-24T15:19:08.786Z,92.99
2016-11-24T15:19:49.248Z,93.37
2016-11-24T15:20:29.798Z,93.18
2016-11-24T15:21:10.245Z,93.18
2016-11-24T15:21:50.709Z,93.51
2016-11-24T15:22:31.193Z,93.56
2016-11-24T15:23:11.637Z,93.37
2016-11-24T15:23:52.154Z,93.75
2016-11-24T15:24:32.662Z,93.56
2016-11-24T15:25:13.146Z,93.84
2016-11-24T15:25:53.629Z,93.56
2016-11-24T15:26:34.377Z,93.75
2016-11-24T15:27:14.845Z,94.13
2016-11-24T15:27:55.369Z,93.84
2016-11-24T15:28:36.583Z,94.04
2016-11-24T15:29:17.062Z,93.94
2016-11-24T15:29:57.531Z,94.04
2016-11-24T15:30:38.036Z,94.23
2016-11-24T15:31:18.603Z,94.7
2016-11-24T15:31:59.243Z,94.32
2016-11-24T15:32:39.710Z,94.51
2016-11-24T15:33:20.168Z,94.42
2016-11-24T15:34:00.633Z,94.32
2016-11-24T15:34:41.147Z,94.7
2016-11-24T15:35:21.621Z,94.6
2016-11-24T15:36:02.094Z,94.7
2016-11-24T15:36:42.580Z,94.7
2016-11-24T15:37:23.147Z,95.36
2016-11-24T15:38:03.594Z,95.36
2016-11-24T15:38:44.314Z,94.98
2016-11-24T15:39:24.778Z,95.07
2016-11-24T15:40:05.269Z,95.74
2016-11-24T15:40:45.726Z,95.74
2016-11-24T15:41:26.259Z,95.93
2016-11-24T15:42:06.758Z,96.03
2016-11-24T15:42:47.283Z,95.55
2016-11-24T15:43:27.776Z,95.74
2016-11-24T15:44:08.251Z,95.74
2016-11-24T15:44:48.741Z,96.03
2016-11-24T15:45:29.179Z,96.12
2016-11-24T15:46:09.688Z,96.22
2016-11-24T15:46:50.220Z,96.5
2016-11-24T15:47:30.668Z,96.03
2016-11-24T15:48:11.204Z,96.12
2016-11-24T15:48:51.673Z,96.78
2016-11-24T15:49:32.150Z,96.69
2016-11-24T15:50:12.624Z,96.69
2016-11-24T15:50:53.135Z,96.88
2016-11-24T15:51:33.662Z,96.88
2016-11-24T15:52:14.168Z,96.73
2016-11-24T15:52:54.630Z,96.92
2016-11-24T15:53:35.158Z,96.73
2016-11-24T15:54:15.635Z,96.64
2016-11-24T15:54:56.168Z,96.97
2016-11-24T15:55:36.644Z,96.45
2016-11-24T15:56:17.119Z,96.26
2016-11-24T15:56:57.569Z,96.45
2016-11-24T15:57:38.058Z,96.64
2016-11-24T15:58:18.543Z,95.98
2016-11-24T15:58:59.021Z,96.17
2016-11-24T15:59:39.504Z,96.07
2016-11-24T16:00:20.032Z,96.26
2016-11-24T16:01:00.463Z,96.55
2016-11-24T16:01:40.961Z,95.98
2016-11-24T16:02:21.463Z,96.07
2016-11-24T16:03:02.002Z,95.88
2016-11-24T16:03:42.444Z,96.36
2016-11-24T16:04:22.944Z,96.07
2016-11-24T16:05:03.405Z,96.83
2016-11-24T16:05:43.881Z,96.83
2016-11-24T16:06:24.360Z,96.55
2016-11-24T16:07:04.811Z,96.45
2016-11-24T16:07:45.286Z,96.64
2016-11-24T16:08:25.760Z,97.02
2016-11-24T16:09:06.250Z,96.83
2016-11-24T16:09:46.853Z,97.78
2016-11-24T16:10:27.347Z,96.92
2016-11-24T16:11:07.845Z,97.21
2016-11-24T16:11:48.350Z,97.3
2016-11-24T16:12:28.854Z,96.26
2016-11-24T16:13:09.330Z,96.45
2016-11-24T16:13:49.805Z,96.45
2016-11-24T16:14:32.603Z,96.83
2016-11-24T16:15:13.689Z,96.64
2016-11-24T16:15:54.182Z,96.55
2016-11-24T16:16:34.655Z,96.55
2016-11-24T16:17:15.151Z,96.73
2016-11-24T16:17:55.632Z,96.45
2016-11-24T16:18:36.134Z,96.26
2016-11-24T16:19:16.614Z,96.73
2016-11-24T16:19:57.084Z,97.3
2016-11-24T16:20:37.578Z,97.3
2016-11-24T16:21:18.082Z,97.3
2016-11-24T16:21:58.550Z,97.78
2016-11-24T16:22:39.036Z,98.16
2016-11-24T16:23:19.534Z,97.87
2016-11-24T16:24:00.018Z,97.97
2016-11-24T16:24:40.491Z,97.78
2016-11-24T16:25:20.991Z,97.44
2016-11-24T16:26:01.464Z,97.35
2016-11-24T16:26:41.956Z,97.54
2016-11-24T16:27:22.433Z,97.44
2016-11-24T16:28:02.904Z,97.25
2016-11-24T16:28:43.388Z,97.16
2016-11-24T16:29:23.876Z,97.44
2016-11-24T16:30:04.349Z,97.25
2016-11-24T16:30:44.820Z,97.35
2016-11-24T16:31:25.305Z,97.25
2016-11-24T16:32:05.787Z,97.25